^^
Station Historical Data
Daily Summary for December 7, 2017 Units:  English    Metric   Both
« Previous Day
Next Day »
Daily Weekly Monthly Yearly Custom
  High: Low: Average:
Temperature: 90.1 °F 58.8 °F 72.5 °F
Dew Point: 58.1 °F 45.9 °F 51.6 °F
Humidity: 91% 24% 52%
Wind Speed: 10.1mph 0.0mph 2.3mph
Wind Gust: 24.0mph - -
Wind- - SE
Pressure: 30.35 in 29.72 in -
Precipitation: 0.38 in    
Historical Graphs
 
 
Tabular Data for December 7, 2017
Time Temperature Dew Point Pressure Wind Wind Speed Wind Gust Humidity Rainfall Rate (Hourly) solar Conditions
00:01 69.3 °F 52.9 °F 30.22 in Calm     56% 0.00 in 0.0 W/m2
00:06 69.3 °F 52.9 °F 30.22 in Calm     56% 0.00 in 0.0 W/m2
00:11 69.3 °F 52.9 °F 30.22 in Calm   1.0 mph 56% 0.00 in 0.0 W/m2
00:17 69.3 °F 52.9 °F 30.22 in Calm     56% 0.00 in 0.0 W/m2
00:22 69.3 °F 52.9 °F 30.22 in Calm     56% 0.00 in 0.0 W/m2
00:27 69.3 °F 52.9 °F 30.22 in Calm     56% 0.00 in 0.0 W/m2
00:32 69.1 °F 53.2 °F 30.22 in SSE 2.0 mph 2.0 mph 57% 0.00 in 0.0 W/m2
00:37 69.1 °F 53.6 °F 30.22 in Calm   1.0 mph 58% 0.00 in 0.0 W/m2
00:42 68.9 °F 53.6 °F 30.22 in Calm   1.0 mph 58% 0.00 in 0.0 W/m2
00:47 68.7 °F 53.4 °F 30.21 in Calm   1.0 mph 58% 0.00 in 0.0 W/m2
00:52 68.7 °F 53.4 °F 30.21 in Calm   1.0 mph 58% 0.00 in 0.0 W/m2
00:58 68.7 °F 53.4 °F 30.21 in Calm   1.0 mph 58% 0.00 in 0.0 W/m2
01:03 68.5 °F 53.2 °F 30.21 in SE 2.0 mph 3.0 mph 58% 0.00 in 0.0 W/m2
01:08 68.5 °F 53.2 °F 30.21 in Calm   2.0 mph 58% 0.00 in 0.0 W/m2
01:13 68.4 °F 53.1 °F 30.21 in Calm   3.0 mph 58% 0.00 in 0.0 W/m2
01:18 68.2 °F 52.9 °F 30.20 in Calm   2.0 mph 58% 0.00 in 0.0 W/m2
01:23 68.0 °F 53.1 °F 30.20 in Calm   2.0 mph 59% 0.00 in 0.0 W/m2
01:28 67.8 °F 52.9 °F 30.20 in Calm   2.0 mph 59% 0.00 in 0.0 W/m2
01:33 67.6 °F 53.2 °F 30.20 in Calm   1.0 mph 60% 0.00 in 0.0 W/m2
01:39 67.6 °F 52.9 °F 30.20 in Calm   2.0 mph 59% 0.00 in 0.0 W/m2
01:44 67.6 °F 52.9 °F 30.20 in Calm     59% 0.00 in 0.0 W/m2
01:49 67.5 °F 52.7 °F 30.20 in Calm     59% 0.00 in 0.0 W/m2
01:54 67.5 °F 52.7 °F 30.20 in Calm     59% 0.00 in 0.0 W/m2
01:59 67.3 °F 52.5 °F 30.20 in Calm   1.0 mph 59% 0.00 in 0.0 W/m2
02:04 67.3 °F 52.5 °F 30.19 in Calm   1.0 mph 59% 0.00 in 0.0 W/m2
02:09 67.1 °F 52.3 °F 30.19 in Calm   1.0 mph 59% 0.00 in 0.0 W/m2
02:14 66.9 °F 52.2 °F 30.20 in Calm   3.0 mph 59% 0.00 in 0.0 W/m2
02:19 66.9 °F 51.6 °F 30.19 in Calm   1.0 mph 58% 0.00 in 0.0 W/m2
02:24 66.9 °F 51.6 °F 30.19 in Calm     58% 0.00 in 0.0 W/m2
02:30 66.7 °F 51.4 °F 30.19 in SE 0.9 mph 1.0 mph 58% 0.00 in 0.0 W/m2
02:35 66.7 °F 51.4 °F 30.18 in SE 0.9 mph 2.0 mph 58% 0.00 in 0.0 W/m2
02:40 66.6 °F 51.3 °F 30.18 in Calm     58% 0.00 in 0.0 W/m2
02:45 66.6 °F 51.3 °F 30.18 in Calm     58% 0.00 in 0.0 W/m2
02:50 66.4 °F 50.7 °F 30.19 in Calm     57% 0.00 in 0.0 W/m2
02:55 66.4 °F 51.1 °F 30.19 in ESE 0.9 mph 3.0 mph 58% 0.00 in 0.0 W/m2
03:00 66.0 °F 51.3 °F 30.19 in Calm   3.0 mph 59% 0.00 in 0.0 W/m2
03:05 66.0 °F 51.8 °F 30.19 in Calm   2.0 mph 60% 0.00 in 0.0 W/m2
03:11 65.8 °F 52.0 °F 30.18 in Calm     61% 0.00 in 0.0 W/m2
03:17 65.7 °F 52.3 °F 30.19 in Calm   1.0 mph 62% 0.00 in 0.0 W/m2
03:22 65.7 °F 52.3 °F 30.18 in Calm     62% 0.00 in 0.0 W/m2
03:27 65.5 °F 52.2 °F 30.18 in Calm   2.0 mph 62% 0.00 in 0.0 W/m2
03:32 65.5 °F 51.6 °F 30.18 in South 0.9 mph 3.0 mph 61% 0.00 in 0.0 W/m2
03:37 65.3 °F 50.5 °F 30.18 in Calm   2.0 mph 59% 0.00 in 0.0 W/m2
03:42 65.3 °F 50.2 °F 30.18 in Calm   3.0 mph 58% 0.00 in 0.0 W/m2
03:47 65.5 °F 50.4 °F 30.18 in Calm   1.0 mph 58% 0.00 in 0.0 W/m2
03:52 65.5 °F 50.4 °F 30.18 in Calm     58% 0.00 in 0.0 W/m2
03:58 65.5 °F 50.7 °F 30.18 in Calm     59% 0.00 in 0.0 W/m2
04:03 65.3 °F 50.5 °F 30.18 in Calm     59% 0.00 in 0.0 W/m2
04:08 65.1 °F 50.4 °F 30.18 in Calm     59% 0.00 in 0.0 W/m2
04:13 64.9 °F 49.8 °F 30.18 in SE 2.0 mph 2.0 mph 58% 0.00 in 0.0 W/m2
04:18 64.8 °F 50.5 °F 30.19 in Calm   2.0 mph 60% 0.00 in 0.0 W/m2
04:24 64.6 °F 50.9 °F 30.19 in Calm   1.0 mph 61% 0.00 in 0.0 W/m2
04:29 64.2 °F 50.5 °F 30.19 in Calm   1.0 mph 61% 0.00 in 0.0 W/m2
04:34 64.0 °F 50.7 °F 30.19 in ENE 0.9 mph 2.0 mph 62% 0.00 in 0.0 W/m2
04:40 63.9 °F 51.1 °F 30.19 in Calm   3.0 mph 63% 0.00 in 0.0 W/m2
04:45 63.7 °F 51.3 °F 30.19 in Calm   2.0 mph 64% 0.00 in 0.0 W/m2
04:50 63.7 °F 51.3 °F 30.19 in Calm   2.0 mph 64% 0.00 in 0.0 W/m2
04:56 63.5 °F 51.1 °F 30.19 in Calm   1.0 mph 64% 0.00 in 0.0 W/m2
05:01 63.3 °F 50.9 °F 30.19 in Calm   1.0 mph 64% 0.00 in 0.0 W/m2
05:06 63.3 °F 50.5 °F 30.19 in Calm   1.0 mph 63% 0.00 in 0.0 W/m2
05:11 63.5 °F 50.7 °F 30.19 in Calm   1.0 mph 63% 0.00 in 0.0 W/m2
05:17 63.7 °F 50.4 °F 30.19 in Calm   2.0 mph 62% 0.00 in 0.0 W/m2
05:22 63.7 °F 50.0 °F 30.19 in Calm     61% 0.00 in 0.0 W/m2
05:24 63.7 °F 50.0 °F 29.72 in Calm     61% 0.00 in 0.0 W/m2
05:30 63.7 °F 50.0 °F 30.19 in East 0.9 mph 1.0 mph 61% 0.00 in 0.0 W/m2
05:35 63.7 °F 49.5 °F 30.19 in Calm   4.0 mph 60% 0.00 in 0.0 W/m2
05:38 63.7 °F 49.5 °F 30.19 in NE 2.0 mph 2.0 mph 60% 0.00 in 0.0 W/m2
05:43 63.7 °F 50.0 °F 30.19 in Calm   4.0 mph 61% 0.00 in 0.0 W/m2
05:48 63.7 °F 50.4 °F 30.19 in Calm   3.0 mph 62% 0.00 in 0.0 W/m2
05:54 63.3 °F 50.5 °F 30.19 in Calm   3.0 mph 63% 0.00 in 0.0 W/m2
05:59 63.3 °F 50.9 °F 30.20 in East 0.9 mph 3.0 mph 64% 0.00 in 0.0 W/m2
06:04 63.1 °F 51.3 °F 30.20 in Calm   1.0 mph 65% 0.00 in 0.0 W/m2
06:09 63.0 °F 50.5 °F 30.20 in ENE 2.0 mph 2.0 mph 64% 0.00 in 5.0 W/m2
06:14 63.0 °F 50.2 °F 30.20 in Calm     63% 0.00 in 7.0 W/m2
06:19 62.8 °F 50.0 °F 30.21 in ESE 0.9 mph 3.0 mph 63% 0.00 in 11.0 W/m2
06:24 62.8 °F 50.0 °F 30.21 in Calm   1.0 mph 63% 0.00 in 16.0 W/m2
06:29 62.8 °F 50.0 °F 30.21 in ENE 2.0 mph 2.0 mph 63% 0.00 in 19.0 W/m2
06:35 63.0 °F 50.2 °F 30.21 in ENE 2.0 mph 3.0 mph 63% 0.00 in 21.0 W/m2
06:40 63.0 °F 50.2 °F 30.22 in Calm   2.0 mph 63% 0.00 in 23.0 W/m2
06:45 63.3 °F 50.9 °F 30.22 in NE 0.9 mph 4.0 mph 64% 0.00 in 28.0 W/m2
06:51 63.7 °F 50.9 °F 30.22 in East 0.9 mph 3.0 mph 63% 0.00 in 54.0 W/m2
06:56 64.0 °F 50.4 °F 30.22 in East 2.0 mph 4.0 mph 61% 0.00 in 79.0 W/m2
07:01 64.6 °F 50.9 °F 30.22 in ENE 0.9 mph 5.0 mph 61% 0.00 in 88.0 W/m2
07:07 65.5 °F 51.3 °F 30.22 in NE 4.9 mph 7.0 mph 60% 0.00 in 93.0 W/m2
07:12 66.0 °F 51.3 °F 30.22 in Calm   3.0 mph 59% 0.00 in 81.0 W/m2
07:17 66.4 °F 51.1 °F 30.22 in Calm   1.0 mph 58% 0.00 in 86.0 W/m2
07:22 66.7 °F 51.1 °F 30.22 in Calm   2.0 mph 57% 0.00 in 105.0 W/m2
07:27 67.3 °F 51.4 °F 30.22 in ENE 0.9 mph 2.0 mph 57% 0.00 in 109.0 W/m2
07:33 67.8 °F 51.6 °F 30.23 in Calm   1.0 mph 56% 0.00 in 91.0 W/m2
07:38 68.4 °F 51.6 °F 30.23 in Calm   3.0 mph 55% 0.00 in 100.0 W/m2
07:43 68.7 °F 51.4 °F 30.23 in Calm   3.0 mph 54% 0.00 in 114.0 W/m2
07:49 69.3 °F 52.0 °F 30.23 in East 2.0 mph 3.0 mph 54% 0.00 in 127.0 W/m2
07:54 69.6 °F 52.7 °F 30.24 in NE 2.9 mph 4.0 mph 55% 0.00 in 223.0 W/m2
07:59 70.5 °F 53.1 °F 30.24 in ENE 4.0 mph 6.0 mph 54% 0.00 in 146.0 W/m2
08:04 71.2 °F 52.7 °F 30.24 in ENE 2.0 mph 4.0 mph 52% 0.00 in 142.0 W/m2
08:09 71.8 °F 53.2 °F 30.24 in ENE 0.9 mph 5.0 mph 52% 0.00 in 142.0 W/m2
08:14 72.0 °F 52.3 °F 30.24 in East 0.9 mph 4.0 mph 50% 0.00 in 148.0 W/m2
08:19 72.3 °F 50.9 °F 30.24 in NE 2.0 mph 3.0 mph 47% 0.00 in 123.0 W/m2
08:25 72.7 °F 51.8 °F 30.24 in East 2.0 mph 3.0 mph 48% 0.00 in 127.0 W/m2
08:30 73.2 °F 51.3 °F 30.24 in NNE 0.9 mph 2.0 mph 46% 0.00 in 160.0 W/m2
08:35 73.6 °F 51.4 °F 30.24 in NW 2.0 mph 2.0 mph 46% 0.00 in 179.0 W/m2
08:41 73.9 °F 51.8 °F 30.24 in NNW 0.9 mph 4.0 mph 46% 0.00 in 199.0 W/m2
08:46 74.1 °F 51.4 °F 30.25 in NNW 2.0 mph 3.0 mph 45% 0.00 in 218.0 W/m2
08:51 74.1 °F 51.4 °F 30.25 in Calm   4.0 mph 45% 0.00 in 171.0 W/m2
08:56 74.1 °F 51.4 °F 30.25 in NNW 0.9 mph 5.0 mph 45% 0.00 in 664.0 W/m2
09:01 74.8 °F 51.4 °F 30.25 in NNW 2.0 mph 5.0 mph 44% 0.00 in 661.0 W/m2
09:06 75.6 °F 51.4 °F 30.25 in Calm   5.0 mph 43% 0.00 in 677.0 W/m2
09:12 76.5 °F 51.1 °F 30.25 in North 2.9 mph 5.0 mph 41% 0.00 in 698.0 W/m2
09:18 77.5 °F 51.3 °F 30.25 in NNW 2.0 mph 6.0 mph 40% 0.00 in 708.0 W/m2
09:22 78.3 °F 50.5 °F 30.25 in ENE 8.1 mph 8.1 mph 38% 0.00 in 735.0 W/m2
09:28 79.0 °F 50.5 °F 30.25 in NNE 2.0 mph 7.0 mph 37% 0.00 in 751.0 W/m2
09:33 79.3 °F 50.7 °F 30.25 in East 4.0 mph 8.0 mph 37% 0.00 in 758.0 W/m2
09:38 79.7 °F 50.4 °F 30.24 in ESE 4.9 mph 12.0 mph 36% 0.00 in 766.0 W/m2
09:44 79.5 °F 50.2 °F 30.24 in NNW 0.9 mph 5.0 mph 36% 0.00 in 780.0 W/m2
09:49 79.9 °F 50.5 °F 30.24 in ENE 4.9 mph 9.0 mph 36% 0.00 in 798.0 W/m2
09:54 80.4 °F 50.2 °F 30.24 in NE 0.9 mph 6.0 mph 35% 0.00 in 810.0 W/m2
09:59 80.8 °F 49.8 °F 30.24 in NNE 2.9 mph 8.0 mph 34% 0.00 in 824.0 W/m2
10:04 81.1 °F 49.3 °F 30.24 in NNW 4.9 mph 7.0 mph 33% 0.00 in 835.0 W/m2
10:09 81.5 °F 49.6 °F 30.24 in East 0.9 mph 6.0 mph 33% 0.00 in 851.0 W/m2
10:14 81.7 °F 49.8 °F 30.24 in ENE 8.1 mph 9.0 mph 33% 0.00 in 898.0 W/m2
10:19 81.9 °F 48.2 °F 30.24 in SE 2.9 mph 5.0 mph 31% 0.00 in 907.0 W/m2
10:25 82.0 °F 48.4 °F 30.24 in NNE 6.9 mph 8.0 mph 31% 0.00 in 912.0 W/m2
10:30 82.4 °F 49.6 °F 30.24 in Calm   3.0 mph 32% 0.00 in 930.0 W/m2
10:35 82.9 °F 49.3 °F 30.24 in East 0.9 mph 8.0 mph 31% 0.00 in 940.0 W/m2
10:40 83.7 °F 49.8 °F 30.24 in East 8.1 mph 8.1 mph 31% 0.00 in 939.0 W/m2
10:45 84.4 °F 49.6 °F 30.23 in NNE 10.1 mph 10.1 mph 30% 0.00 in 944.0 W/m2
10:50 84.4 °F 48.7 °F 30.23 in North 4.0 mph 10.0 mph 29% 0.00 in 953.0 W/m2
10:55 84.2 °F 49.5 °F 30.24 in ESE 4.0 mph 9.0 mph 30% 0.00 in 958.0 W/m2
11:00 84.4 °F 49.6 °F 30.23 in ENE 6.0 mph 12.0 mph 30% 0.00 in 974.0 W/m2
11:05 84.6 °F 49.6 °F 30.23 in ESE 8.9 mph 11.0 mph 30% 0.00 in 977.0 W/m2
11:10 84.4 °F 47.7 °F 30.23 in NE 2.9 mph 10.0 mph 28% 0.00 in 986.0 W/m2
11:15 84.7 °F 48.0 °F 30.23 in ENE 6.9 mph 11.0 mph 28% 0.00 in 990.0 W/m2
11:20 85.3 °F 49.5 °F 30.23 in North 0.9 mph 6.0 mph 29% 0.00 in 1000.0 W/m2
11:25 85.3 °F 48.6 °F 30.23 in North 2.9 mph 10.0 mph 28% 0.00 in 1011.0 W/m2
11:30 85.5 °F 48.6 °F 30.23 in ENE 6.0 mph 10.0 mph 28% 0.00 in 1014.0 W/m2
11:35 85.6 °F 48.7 °F 30.22 in NE 4.9 mph 14.0 mph 28% 0.00 in 1016.0 W/m2
11:40 85.6 °F 48.7 °F 30.22 in SSE 2.9 mph 5.0 mph 28% 0.00 in 1025.0 W/m2
11:45 85.8 °F 48.0 °F 30.22 in ENE 4.9 mph 8.0 mph 27% 0.00 in 1034.0 W/m2
11:50 86.0 °F 48.2 °F 30.22 in SE 0.9 mph 9.0 mph 27% 0.00 in 1042.0 W/m2
11:55 86.2 °F 48.2 °F 30.21 in East 2.9 mph 6.0 mph 27% 0.00 in 1053.0 W/m2
12:00 86.4 °F 48.4 °F 30.21 in SE 8.1 mph 11.0 mph 27% 0.00 in 1060.0 W/m2
12:06 86.2 °F 47.3 °F 30.21 in SSE 4.0 mph 6.0 mph 26% 0.00 in 1083.0 W/m2
12:11 86.5 °F 49.6 °F 30.21 in ENE 0.9 mph 13.0 mph 28% 0.00 in 1132.0 W/m2
12:17 85.6 °F 47.8 °F 30.21 in ESE 2.9 mph 6.0 mph 27% 0.00 in 176.0 W/m2
12:22 85.3 °F 48.6 °F 30.21 in Calm   4.0 mph 28% 0.00 in 158.0 W/m2
12:27 84.7 °F 48.0 °F 30.21 in NNE 4.0 mph 6.0 mph 28% 0.00 in 186.0 W/m2
12:32 84.4 °F 47.7 °F 30.20 in ENE 0.9 mph 8.0 mph 28% 0.00 in 287.0 W/m2
12:37 84.7 °F 48.9 °F 30.20 in NNW 6.0 mph 9.0 mph 29% 0.00 in 1227.0 W/m2
12:42 85.8 °F 48.0 °F 30.20 in NE 4.0 mph 9.0 mph 27% 0.00 in 1158.0 W/m2
12:47 86.4 °F 48.4 °F 30.19 in WNW 2.0 mph 4.0 mph 27% 0.00 in 1127.0 W/m2
12:52 86.7 °F 47.7 °F 30.19 in Calm   5.0 mph 26% 0.00 in 1158.0 W/m2
12:57 87.6 °F 48.6 °F 30.19 in SSW 0.9 mph 9.0 mph 26% 0.00 in 1167.0 W/m2
13:02 88.0 °F 47.8 °F 30.19 in North 2.0 mph 4.0 mph 25% 0.00 in 1178.0 W/m2
13:12 89.1 °F 48.7 °F 30.18 in Calm   3.0 mph 25% 0.00 in 1225.0 W/m2
13:18 89.2 °F 48.7 °F 30.18 in East 2.9 mph 13.0 mph 25% 0.00 in 1209.0 W/m2
13:23 90.0 °F 48.4 °F 30.18 in NNW 2.9 mph 7.0 mph 24% 0.00 in 642.0 W/m2
13:28 90.1 °F 48.6 °F 30.18 in NE 4.0 mph 7.0 mph 24% 0.00 in 257.0 W/m2
13:33 88.9 °F 49.6 °F 30.17 in North 4.9 mph 6.0 mph 26% 0.00 in 221.0 W/m2
13:38 87.3 °F 49.3 °F 30.17 in North 4.0 mph 11.0 mph 27% 0.00 in 195.0 W/m2
13:43 85.8 °F 48.9 °F 30.17 in NNE 8.1 mph 8.1 mph 28% 0.00 in 176.0 W/m2
13:48 85.3 °F 50.4 °F 30.17 in NNW 4.0 mph 7.0 mph 30% 0.00 in 132.0 W/m2
13:53 84.7 °F 48.9 °F 30.17 in NNW 2.0 mph 10.0 mph 29% 0.00 in 134.0 W/m2
13:58 84.2 °F 49.5 °F 30.17 in NNW 2.9 mph 6.0 mph 30% 0.00 in 130.0 W/m2
14:03 84.0 °F 49.3 °F 30.17 in NNW 6.0 mph 10.0 mph 30% 0.00 in 137.0 W/m2
14:09 83.8 °F 54.0 °F 30.16 in North 2.0 mph 6.0 mph 36% 0.00 in 156.0 W/m2
14:13 83.1 °F 57.6 °F 30.16 in North 0.9 mph 5.0 mph 42% 0.00 in 237.0 W/m2
14:18 82.2 °F 54.9 °F 30.16 in Calm   5.0 mph 39% 0.00 in 868.0 W/m2
14:23 82.2 °F 54.1 °F 30.15 in NNW 2.0 mph 2.0 mph 38% 0.00 in 278.0 W/m2
14:28 82.4 °F 51.3 °F 30.15 in Calm   3.0 mph 34% 0.00 in 241.0 W/m2
14:33 82.6 °F 52.2 °F 30.15 in South 0.9 mph 1.0 mph 35% 0.00 in 308.0 W/m2
14:38 82.8 °F 49.1 °F 30.14 in South 0.9 mph 3.0 mph 31% 0.00 in 234.0 W/m2
14:43 82.9 °F 48.4 °F 30.14 in WSW 0.9 mph 2.0 mph 30% 0.00 in 276.0 W/m2
14:49 82.9 °F 48.4 °F 30.14 in Calm   2.0 mph 30% 0.00 in 752.0 W/m2
14:54 83.5 °F 49.6 °F 30.14 in West 2.9 mph 6.0 mph 31% 0.00 in 571.0 W/m2
14:59 83.8 °F 49.1 °F 30.14 in Calm   2.0 mph 30% 0.00 in 246.0 W/m2
15:04 84.0 °F 49.3 °F 30.14 in Calm   2.0 mph 30% 0.00 in 251.0 W/m2
15:09 84.2 °F 49.5 °F 30.14 in WSW 2.0 mph 2.0 mph 30% 0.00 in 325.0 W/m2
15:14 84.4 °F 48.7 °F 30.13 in Calm   1.0 mph 29% 0.00 in 299.0 W/m2
15:19 84.6 °F 48.7 °F 30.13 in Calm   4.0 mph 29% 0.00 in 352.0 W/m2
15:24 84.6 °F 47.8 °F 30.12 in NW 4.9 mph 6.0 mph 28% 0.00 in 367.0 W/m2
15:29 84.9 °F 48.2 °F 30.12 in Calm   6.0 mph 28% 0.00 in 432.0 W/m2
15:34 85.5 °F 48.6 °F 30.11 in WNW 4.9 mph 5.0 mph 28% 0.00 in 415.0 W/m2
15:40 85.6 °F 45.9 °F 30.12 in WNW 4.9 mph 5.0 mph 25% 0.00 in 550.0 W/m2
15:45 85.8 °F 46.9 °F 30.12 in WSW 4.0 mph 9.0 mph 26% 0.00 in 334.0 W/m2
15:50 85.5 °F 46.6 °F 30.12 in WSW 2.9 mph 7.0 mph 26% 0.00 in 536.0 W/m2
15:55 85.8 °F 46.9 °F 30.12 in SSW 2.9 mph 8.0 mph 26% 0.00 in 821.0 W/m2
16:00 85.8 °F 49.8 °F 30.12 in NNW 6.0 mph 12.0 mph 29% 0.00 in 169.0 W/m2
16:05 84.4 °F 49.6 °F 30.12 in NNW 6.0 mph 12.0 mph 30% 0.00 in 153.0 W/m2
16:10 83.1 °F 50.2 °F 30.12 in North 2.9 mph 13.0 mph 32% 0.00 in 146.0 W/m2
16:15 82.2 °F 50.2 °F 30.12 in NNW 4.9 mph 11.0 mph 33% 0.00 in 134.0 W/m2
16:31 81.0 °F 51.4 °F 30.12 in NNW 8.1 mph 8.1 mph 36% 0.00 in 104.0 W/m2
16:41 80.1 °F 47.5 °F 30.12 in NNW 2.0 mph 11.0 mph 32% 0.00 in 165.0 W/m2
16:46 80.4 °F 47.8 °F 30.12 in WNW 2.9 mph 11.0 mph 32% 0.00 in 510.0 W/m2
16:51 81.0 °F 48.4 °F 30.12 in NNW 2.9 mph 12.0 mph 32% 0.00 in 619.0 W/m2
16:56 81.7 °F 48.0 °F 30.12 in NNW 8.9 mph 15.0 mph 31% 0.00 in 555.0 W/m2
17:01 81.9 °F 49.1 °F 30.12 in NNW 2.0 mph 13.0 mph 32% 0.00 in 545.0 W/m2
17:06 82.6 °F 48.9 °F 30.12 in NNW 6.9 mph 10.0 mph 31% 0.00 in 587.0 W/m2
17:12 82.6 °F 48.0 °F 30.13 in North 2.9 mph 8.0 mph 30% 0.00 in 552.0 W/m2
17:32 81.7 °F 46.4 °F 30.13 in NW 2.9 mph 6.0 mph 29% 0.00 in 158.0 W/m2
17:37 81.5 °F 47.1 °F 30.13 in NNW 4.9 mph 5.0 mph 30% 0.00 in 213.0 W/m2
17:42 81.7 °F 48.0 °F 30.14 in NNE 6.0 mph 11.0 mph 31% 0.00 in 130.0 W/m2
17:47 81.7 °F 50.5 °F 30.14 in East 2.9 mph 9.0 mph 34% 0.00 in 220.0 W/m2
17:52 81.1 °F 51.6 °F 30.14 in NE 6.0 mph 11.0 mph 36% 0.00 in 153.0 W/m2
17:57 80.4 °F 52.5 °F 30.14 in ENE 4.9 mph 9.0 mph 38% 0.00 in 401.0 W/m2
18:03 80.1 °F 52.9 °F 30.14 in ENE 2.9 mph 9.0 mph 39% 0.00 in 144.0 W/m2
18:08 79.2 °F 52.7 °F 30.14 in ENE 2.0 mph 8.0 mph 40% 0.00 in 98.0 W/m2
18:13 78.6 °F 50.9 °F 30.15 in ENE 6.9 mph 8.0 mph 38% 0.00 in 60.0 W/m2
18:23 76.1 °F 52.0 °F 30.17 in NE 10.1 mph 16.0 mph 43% 0.00 in 47.0 W/m2
18:28 74.5 °F 52.3 °F 30.18 in East 4.0 mph 18.0 mph 46% 0.00 in 30.0 W/m2
18:33 73.0 °F 52.7 °F 30.18 in NE 6.9 mph 18.0 mph 49% 0.00 in 23.0 W/m2
18:38 72.5 °F 52.9 °F 30.18 in ESE 4.0 mph 10.0 mph 50% 0.00 in 28.0 W/m2
18:43 72.0 °F 54.0 °F 30.17 in NNE 4.9 mph 14.0 mph 53% 0.00 in 28.0 W/m2
18:54 70.2 °F 54.7 °F 30.17 in East 10.1 mph 20.0 mph 58% 0.00 in 14.0 W/m2
18:59 69.3 °F 54.9 °F 30.17 in NE 10.1 mph 13.0 mph 60% 0.00 in 7.0 W/m2
19:04 68.7 °F 54.7 °F 30.17 in NNE 2.0 mph 19.0 mph 61% 0.00 in 0.0 W/m2
19:09 68.7 °F 53.8 °F 30.17 in East 4.9 mph 24.0 mph 59% 0.00 in 0.0 W/m2
19:14 68.7 °F 53.8 °F 30.18 in NE 6.0 mph 15.0 mph 59% 0.00 in 0.0 W/m2
19:19 68.7 °F 54.3 °F 30.18 in East 6.0 mph 12.0 mph 60% 0.00 in 0.0 W/m2
19:24 68.5 °F 54.5 °F 30.18 in NNE 6.9 mph 13.0 mph 61% 0.00 in 0.0 W/m2
19:30 68.2 °F 54.1 °F 30.19 in ENE 8.1 mph 22.0 mph 61% 0.00 in 0.0 W/m2
19:35 67.8 °F 54.3 °F 30.19 in ENE 8.9 mph 14.0 mph 62% 0.00 in 0.0 W/m2
19:40 67.6 °F 54.1 °F 30.21 in NE 6.9 mph 17.0 mph 62% 0.00 in 0.0 W/m2
19:45 67.6 °F 54.1 °F 30.22 in ESE 2.0 mph 11.0 mph 62% 0.00 in 0.0 W/m2
19:50 67.8 °F 54.3 °F 30.23 in North 8.1 mph 11.0 mph 62% 0.00 in 0.0 W/m2
19:55 67.8 °F 54.3 °F 30.23 in ENE 6.9 mph 13.0 mph 62% 0.00 in 0.0 W/m2
20:00 67.6 °F 55.4 °F 30.24 in East 4.0 mph 11.0 mph 65% 0.00 in 0.0 W/m2
20:05 67.5 °F 56.1 °F 30.25 in NE 4.0 mph 10.0 mph 67% 0.00 in 0.0 W/m2
20:10 66.9 °F 56.8 °F 30.25 in East 4.9 mph 8.0 mph 70% 0.00 in 0.0 W/m2
20:15 66.6 °F 56.8 °F 30.26 in East 2.0 mph 7.0 mph 71% 0.01 in 0.0 W/m2
20:26 65.8 °F 57.4 °F 30.28 in SE 2.9 mph 8.0 mph 74% 0.02 in 0.0 W/m2
20:31 65.3 °F 57.6 °F 30.30 in ESE 8.9 mph 9.0 mph 76% 0.02 in 0.0 W/m2
20:36 64.8 °F 58.1 °F 30.30 in SSW 4.9 mph 10.0 mph 79% 0.05 in 0.0 W/m2
20:56 61.0 °F 56.8 °F 30.34 in SW 2.9 mph 9.0 mph 86% 0.09 in 0.0 W/m2
21:01 60.6 °F 56.7 °F 30.34 in SSW 0.9 mph 10.0 mph 87% 0.11 in 0.0 W/m2
21:06 60.4 °F 56.8 °F 30.34 in SE 8.9 mph 9.0 mph 88% 0.13 in 0.0 W/m2
21:11 60.3 °F 56.7 °F 30.34 in NE 4.0 mph 9.0 mph 88% 0.14 in 0.0 W/m2
21:16 60.1 °F 56.8 °F 30.34 in South 4.0 mph 5.0 mph 89% 0.15 in 0.0 W/m2
21:21 60.1 °F 57.2 °F 30.34 in SE 0.9 mph 4.0 mph 90% 0.18 in 0.0 W/m2
21:26 60.1 °F 57.2 °F 30.34 in SSW 8.1 mph 11.0 mph 90% 0.21 in 0.0 W/m2
21:33 59.7 °F 56.5 °F 30.33 in SSW 2.0 mph 10.0 mph 89% 0.20 in 0.0 W/m2
21:43 59.7 °F 56.8 °F 30.35 in SSE 4.0 mph 10.0 mph 90% 0.19 in 0.0 W/m2
21:49 59.7 °F 56.8 °F 30.35 in East 2.9 mph 7.0 mph 90% 0.18 in 0.0 W/m2
21:54 59.7 °F 56.8 °F 30.35 in SE 6.9 mph 9.0 mph 90% 0.20 in 0.0 W/m2
21:59 59.5 °F 55.9 °F 30.35 in SE 4.9 mph 8.0 mph 88% 0.20 in 0.0 W/m2
22:04 59.4 °F 55.8 °F 30.34 in East 2.9 mph 9.0 mph 88% 0.20 in 0.0 W/m2
22:09 59.2 °F 55.6 °F 30.34 in ESE 4.0 mph 7.0 mph 88% 0.20 in 0.0 W/m2
22:14 59.0 °F 55.4 °F 30.34 in SE 2.0 mph 6.0 mph 88% 0.21 in 0.0 W/m2
22:19 58.8 °F 55.6 °F 30.35 in Calm   6.0 mph 89% 0.20 in 0.0 W/m2
22:24 58.8 °F 55.6 °F 30.35 in Calm   3.0 mph 89% 0.16 in 0.0 W/m2
22:30 59.0 °F 56.1 °F 30.35 in ESE 2.0 mph 5.0 mph 90% 0.14 in 0.0 W/m2
22:35 59.0 °F 56.1 °F 30.34 in Calm   1.0 mph 90% 0.13 in 0.0 W/m2
22:40 58.8 °F 55.6 °F 30.34 in Calm     89% 0.13 in 0.0 W/m2
22:45 58.8 °F 55.9 °F 30.34 in Calm     90% 0.12 in 0.0 W/m2
22:50 58.8 °F 55.9 °F 30.34 in Calm     90% 0.10 in 0.0 W/m2
22:55 58.8 °F 55.9 °F 30.34 in Calm   1.0 mph 90% 0.09 in 0.0 W/m2
23:00 59.2 °F 56.5 °F 30.34 in Calm   3.0 mph 91% 0.06 in 0.0 W/m2
23:05 59.2 °F 56.5 °F 30.34 in Calm   1.0 mph 91% 0.05 in 0.0 W/m2
23:11 59.2 °F 55.9 °F 30.33 in Calm   2.0 mph 89% 0.03 in 0.0 W/m2
23:22 59.0 °F 55.4 °F 30.32 in Calm   1.0 mph 88% 0.01 in 0.0 W/m2
23:27 59.2 °F 56.3 °F 30.31 in NNE 2.0 mph 4.0 mph 90% 0.00 in 0.0 W/m2
23:32 59.4 °F 56.5 °F 30.30 in ESE 0.9 mph 6.0 mph 90% 0.00 in 0.0 W/m2
23:37 59.4 °F 56.5 °F 30.29 in East 0.9 mph 7.0 mph 90% 0.00 in 0.0 W/m2
23:42 59.4 °F 56.5 °F 30.30 in Calm   1.0 mph 90% 0.00 in 0.0 W/m2
23:52 59.4 °F 56.5 °F 30.30 in Calm   3.0 mph 90% 0.00 in 0.0 W/m2
23:57 59.4 °F 56.1 °F 30.30 in Calm     89% 0.00 in 0.0 W/m2
Olympia, Windhoek, Namibia
Compliments of Weather Underground - 3.25 mb